Time;durP1;ratioP1;P1;durP2;ratioP2;P2;SDS_P1;SDS_P2;PMS_P1;PMS_P2;Temp;Humidity;BMP_temperature;BMP_pressure;BME280_temperature;BME280_humidity;BME280_pressure;Samples;Min_cycle;Max_cycle;Signal;HPM_P1;HPM_P2
2023/11/21 00:00:14;;;;;;;54.47;14.88;;;9.20;99.90;;;;;;5058383;28;20055;-74
2023/11/21 00:02:40;;;;;;;60.42;14.27;;;9.20;99.90;;;;;;5060198;28;20135;-75
2023/11/21 00:05:16;;;;;;;53.97;14.40;;;9.20;99.90;;;;;;5060468;28;20059;-75
2023/11/21 00:07:42;;;;;;;54.03;14.35;;;9.20;99.90;;;;;;5059171;28;20386;-76
2023/11/21 00:10:09;;;;;;;55.22;13.85;;;9.20;99.90;;;;;;5060693;28;20032;-75
2023/11/21 00:12:35;;;;;;;60.50;14.10;;;9.20;99.90;;;;;;5060037;28;20028;-75
2023/11/21 00:15:02;;;;;;;50.78;13.65;;;9.10;99.90;;;;;;5059776;28;20450;-76
2023/11/21 00:17:28;;;;;;;54.25;14.05;;;9.10;99.90;;;;;;5060296;28;20021;-74
2023/11/21 00:19:53;;;;;;;46.83;13.15;;;9.10;99.90;;;;;;5060294;28;20085;-75
2023/11/21 00:22:19;;;;;;;52.65;13.20;;;9.10;99.90;;;;;;5060442;28;20041;-76
2023/11/21 00:24:45;;;;;;;52.72;13.25;;;9.10;99.90;;;;;;5060673;28;20021;-74
2023/11/21 00:27:11;;;;;;;45.75;13.60;;;9.10;99.90;;;;;;5060023;28;20029;-74
2023/11/21 00:29:38;;;;;;;53.95;13.70;;;9.10;99.90;;;;;;5059609;28;20047;-74
2023/11/21 00:32:05;;;;;;;51.78;12.75;;;9.10;99.90;;;;;;5060737;28;20021;-76
2023/11/21 00:34:31;;;;;;;54.33;14.38;;;9.10;99.90;;;;;;5060195;28;20033;-75
2023/11/21 00:36:56;;;;;;;56.08;14.65;;;9.00;99.90;;;;;;5059173;28;20025;-74
2023/11/21 00:39:22;;;;;;;44.50;14.38;;;9.00;99.90;;;;;;5060468;28;20107;-76
2023/11/21 00:41:48;;;;;;;55.08;13.93;;;9.10;99.90;;;;;;5061750;28;20057;-76
2023/11/21 00:44:14;;;;;;;54.70;14.52;;;9.00;99.90;;;;;;5062485;28;20043;-76
2023/11/21 00:46:39;;;;;;;50.63;14.10;;;9.10;99.90;;;;;;5063808;28;20017;-76
2023/11/21 00:49:05;;;;;;;45.20;14.20;;;9.10;99.90;;;;;;5064071;28;20049;-77
2023/11/21 00:51:30;;;;;;;56.03;13.45;;;9.10;99.90;;;;;;5063041;28;20437;-74
2023/11/21 00:53:56;;;;;;;47.72;13.65;;;9.10;99.90;;;;;;5063397;28;20033;-76
2023/11/21 00:56:22;;;;;;;45.55;12.85;;;9.10;99.90;;;;;;5063934;28;20372;-74
2023/11/21 00:58:50;;;;;;;47.70;14.35;;;9.10;99.90;;;;;;5063902;28;20381;-75
2023/11/21 01:01:16;;;;;;;45.38;13.45;;;9.10;99.90;;;;;;5063252;28;20021;-75
2023/11/21 01:03:43;;;;;;;33.53;12.43;;;9.10;99.90;;;;;;5061612;28;20055;-76
2023/11/21 01:06:11;;;;;;;38.42;13.63;;;9.10;99.90;;;;;;5062542;28;20081;-75
2023/11/21 01:08:36;;;;;;;40.60;13.35;;;9.20;99.90;;;;;;5063580;28;20021;-77
2023/11/21 01:11:02;;;;;;;49.80;13.48;;;9.20;99.90;;;;;;5063796;28;20020;-77
2023/11/21 01:13:29;;;;;;;48.83;14.15;;;9.20;99.90;;;;;;5063704;28;20054;-76
2023/11/21 01:15:55;;;;;;;41.90;14.60;;;9.10;99.90;;;;;;5063064;28;20488;-75
2023/11/21 01:18:21;;;;;;;42.95;13.73;;;9.20;99.90;;;;;;5063413;28;20028;-77
2023/11/21 01:20:47;;;;;;;47.25;14.77;;;9.20;99.90;;;;;;5062461;28;20024;-77
2023/11/21 01:23:13;;;;;;;46.33;14.77;;;9.30;99.90;;;;;;5062481;28;20049;-76
2023/11/21 01:25:39;;;;;;;41.45;14.93;;;9.30;99.90;;;;;;5063369;28;20029;-75
2023/11/21 01:28:04;;;;;;;50.40;14.95;;;9.30;99.90;;;;;;5063014;28;20025;-75
2023/11/21 01:30:32;;;;;;;49.72;15.80;;;9.30;99.90;;;;;;5062724;28;20025;-73
2023/11/21 01:32:58;;;;;;;54.50;16.48;;;9.40;99.90;;;;;;5061286;28;20021;-76
2023/11/21 01:35:24;;;;;;;59.83;15.77;;;9.40;99.90;;;;;;5061557;28;20101;-75
2023/11/21 01:37:49;;;;;;;50.60;16.42;;;9.40;99.90;;;;;;5062993;28;20045;-76
2023/11/21 01:40:15;;;;;;;63.15;16.50;;;9.40;99.90;;;;;;5061335;28;20025;-75
2023/11/21 01:42:43;;;;;;;50.90;14.68;;;9.40;99.90;;;;;;5063129;28;20052;-76
2023/11/21 01:45:09;;;;;;;53.22;14.75;;;9.40;99.90;;;;;;5062302;28;20381;-74
2023/11/21 01:47:36;;;;;;;45.30;15.10;;;9.40;99.90;;;;;;5063114;28;20020;-74
2023/11/21 01:50:04;;;;;;;54.22;15.32;;;9.40;99.90;;;;;;5061429;28;20428;-73
2023/11/21 01:52:30;;;;;;;54.80;15.73;;;9.40;99.90;;;;;;5062507;28;20029;-74
2023/11/21 01:54:57;;;;;;;80.97;17.70;;;9.40;99.90;;;;;;5062862;28;20107;-76
2023/11/21 01:57:23;;;;;;;64.50;16.60;;;9.40;99.90;;;;;;5061821;28;20058;-75
2023/11/21 01:59:50;;;;;;;93.75;18.27;;;9.40;99.90;;;;;;5061255;28;20017;-76
2023/11/21 02:02:16;;;;;;;49.95;16.00;;;9.50;99.90;;;;;;5062208;28;20048;-75
2023/11/21 02:04:42;;;;;;;68.45;17.52;;;9.40;99.90;;;;;;5062355;28;20013;-76
2023/11/21 02:07:08;;;;;;;63.95;17.13;;;9.40;99.90;;;;;;5061245;28;20031;-76
2023/11/21 02:09:34;;;;;;;60.15;15.98;;;9.50;99.90;;;;;;5062603;28;20449;-76
2023/11/21 02:12:00;;;;;;;70.78;17.42;;;9.40;99.90;;;;;;5062206;28;20038;-77
2023/11/21 02:14:27;;;;;;;57.67;17.65;;;9.40;99.90;;;;;;5061541;28;20033;-75
2023/11/21 02:16:54;;;;;;;66.78;18.73;;;9.40;99.90;;;;;;5061763;28;20032;-76
2023/11/21 02:19:29;;;;;;;84.50;18.70;;;9.40;99.90;;;;;;5061806;28;20021;-75
2023/11/21 02:21:59;;;;;;;65.88;18.35;;;9.30;99.90;;;;;;5062022;28;20033;-74
2023/11/21 02:24:25;;;;;;;68.43;18.58;;;9.30;99.90;;;;;;5061745;28;20917;-74
2023/11/21 02:26:51;;;;;;;81.40;19.77;;;9.30;99.90;;;;;;5060835;28;20059;-76
2023/11/21 02:29:18;;;;;;;88.32;19.95;;;9.30;99.90;;;;;;5061698;28;20036;-75
2023/11/21 02:31:47;;;;;;;68.97;19.02;;;9.40;99.90;;;;;;5060594;28;20051;-75
2023/11/21 02:34:17;;;;;;;74.43;19.75;;;9.30;99.90;;;;;;5060759;28;20025;-73
2023/11/21 02:36:45;;;;;;;77.45;20.15;;;9.30;99.90;;;;;;5062259;28;20089;-73
2023/11/21 02:39:11;;;;;;;65.63;18.58;;;9.20;99.90;;;;;;5061262;28;20107;-74
2023/11/21 02:41:38;;;;;;;77.65;21.33;;;9.20;99.90;;;;;;5060680;28;20076;-75
2023/11/21 02:44:07;;;;;;;82.03;20.45;;;9.20;99.90;;;;;;5061107;28;20032;-75
2023/11/21 02:46:34;;;;;;;115.50;21.38;;;9.30;99.90;;;;;;5059754;28;20054;-76
2023/11/21 02:49:03;;;;;;;111.40;22.45;;;9.30;99.90;;;;;;5061904;28;20127;-75
2023/11/21 02:51:30;;;;;;;89.05;22.73;;;9.20;99.90;;;;;;5060440;28;20070;-76
2023/11/21 02:53:58;;;;;;;73.70;21.13;;;9.20;99.90;;;;;;5060481;28;20021;-74
2023/11/21 02:56:26;;;;;;;96.20;22.60;;;9.20;99.90;;;;;;5061173;28;20077;-74
2023/11/21 02:58:52;;;;;;;105.50;23.15;;;9.20;99.90;;;;;;5059870;28;20033;-75
2023/11/21 03:01:18;;;;;;;113.10;23.15;;;9.10;99.90;;;;;;5061329;28;20025;-76
2023/11/21 03:03:43;;;;;;;76.65;22.20;;;9.10;99.90;;;;;;5060839;28;20077;-74
2023/11/21 03:06:09;;;;;;;131.15;23.33;;;9.10;99.90;;;;;;5060542;28;20040;-74
2023/11/21 03:08:35;;;;;;;123.32;24.38;;;9.10;99.90;;;;;;5059762;28;20062;-75
2023/11/21 03:11:03;;;;;;;98.65;21.83;;;9.10;99.90;;;;;;5061613;28;20489;-74
2023/11/21 03:13:29;;;;;;;76.35;23.58;;;9.10;99.90;;;;;;5059578;28;20025;-75
2023/11/21 03:15:57;;;;;;;99.97;24.88;;;9.00;99.90;;;;;;5059773;28;20786;-74
2023/11/21 03:18:23;;;;;;;114.53;26.10;;;9.00;99.90;;;;;;5058559;28;20029;-74
2023/11/21 03:20:48;;;;;;;89.13;24.70;;;9.00;99.90;;;;;;5059401;28;20035;-75
2023/11/21 03:23:15;;;;;;;99.43;25.98;;;9.00;99.90;;;;;;5061042;28;20029;-74
2023/11/21 03:25:40;;;;;;;137.55;27.65;;;9.00;99.90;;;;;;5061223;28;20084;-73
2023/11/21 03:28:08;;;;;;;152.02;27.77;;;9.00;99.90;;;;;;5058537;28;20094;-74
2023/11/21 03:30:33;;;;;;;117.05;26.67;;;8.90;99.90;;;;;;5059883;28;20085;-74
2023/11/21 03:32:59;;;;;;;80.90;24.05;;;8.80;99.90;;;;;;5061104;28;20037;-74
2023/11/21 03:35:26;;;;;;;84.75;25.48;;;8.80;99.90;;;;;;5060701;28;20199;-75
2023/11/21 03:37:51;;;;;;;88.30;24.42;;;8.90;99.90;;;;;;5061044;28;20028;-73
2023/11/21 03:40:17;;;;;;;83.38;24.85;;;8.90;99.90;;;;;;5058447;28;20120;-74
2023/11/21 03:42:43;;;;;;;92.43;24.50;;;8.80;99.90;;;;;;5061059;28;20037;-73
2023/11/21 03:45:09;;;;;;;108.13;25.20;;;8.80;99.90;;;;;;5061497;28;20021;-74
2023/11/21 03:47:35;;;;;;;94.30;24.88;;;8.80;99.90;;;;;;5061204;28;20055;-75
2023/11/21 03:50:00;;;;;;;92.97;26.42;;;8.90;99.90;;;;;;5061204;28;20025;-75
2023/11/21 03:52:28;;;;;;;102.15;25.35;;;8.70;99.90;;;;;;5061287;28;20025;-74
2023/11/21 03:54:54;;;;;;;95.20;26.23;;;8.80;99.90;;;;;;5061180;28;20468;-74
2023/11/21 03:57:20;;;;;;;83.85;25.95;;;8.70;99.90;;;;;;5060887;28;20024;-73
2023/11/21 03:59:46;;;;;;;135.30;26.13;;;8.70;99.90;;;;;;5061468;28;20032;-73
2023/11/21 04:02:12;;;;;;;88.20;25.23;;;8.60;99.90;;;;;;5060808;28;20041;-76
2023/11/21 04:04:37;;;;;;;76.55;23.55;;;8.60;99.90;;;;;;5061506;28;20051;-74
2023/11/21 04:07:04;;;;;;;71.72;23.02;;;8.50;99.90;;;;;;5061375;28;20048;-73
2023/11/21 04:09:29;;;;;;;68.65;23.15;;;8.60;99.90;;;;;;5059300;28;20055;-74
2023/11/21 04:11:55;;;;;;;71.53;22.35;;;8.60;99.90;;;;;;5060137;28;20077;-74
2023/11/21 04:14:22;;;;;;;56.50;20.65;;;8.50;99.90;;;;;;5061648;28;20028;-74
2023/11/21 04:16:48;;;;;;;53.13;20.70;;;8.60;99.90;;;;;;5063217;28;20024;-73
2023/11/21 04:19:17;;;;;;;60.15;21.42;;;8.50;99.90;;;;;;5062174;28;20048;-73
2023/11/21 04:21:42;;;;;;;60.55;21.20;;;8.60;99.90;;;;;;5064102;28;20048;-73
2023/11/21 04:24:08;;;;;;;53.25;21.38;;;8.60;99.90;;;;;;5064435;28;20625;-72
2023/11/21 04:26:34;;;;;;;51.42;20.13;;;8.60;99.90;;;;;;5064310;28;20017;-74
2023/11/21 04:28:59;;;;;;;49.28;20.10;;;8.50;99.90;;;;;;5064688;28;20036;-74
2023/11/21 04:31:25;;;;;;;48.17;19.98;;;8.50;99.90;;;;;;5062419;28;20033;-73
2023/11/21 04:33:51;;;;;;;49.97;21.40;;;8.50;99.90;;;;;;5064532;28;20052;-73
2023/11/21 04:36:17;;;;;;;51.67;21.65;;;8.50;99.90;;;;;;5063901;28;20028;-73
2023/11/21 04:38:42;;;;;;;54.88;20.63;;;8.40;99.90;;;;;;5063928;28;20104;-74
2023/11/21 04:41:08;;;;;;;59.40;22.27;;;8.40;99.90;;;;;;5064334;28;20053;-72
2023/11/21 04:43:34;;;;;;;60.85;21.63;;;8.40;99.90;;;;;;5062995;28;20574;-74
2023/11/21 04:46:00;;;;;;;54.13;20.83;;;8.40;99.90;;;;;;5063753;28;20021;-72
2023/11/21 04:48:25;;;;;;;64.00;21.70;;;8.30;99.90;;;;;;5063538;28;20037;-73
2023/11/21 04:50:51;;;;;;;51.38;19.88;;;8.40;99.90;;;;;;5063971;28;20058;-73
2023/11/21 04:53:17;;;;;;;49.70;20.17;;;8.30;99.90;;;;;;5062371;28;20482;-72
2023/11/21 04:55:43;;;;;;;47.38;19.27;;;8.40;99.90;;;;;;5064083;28;20021;-71
2023/11/21 04:58:09;;;;;;;45.88;19.60;;;8.30;99.90;;;;;;5063735;28;20023;-74
2023/11/21 05:00:38;;;;;;;46.47;20.35;;;8.30;99.90;;;;;;5063529;28;20111;-73
2023/11/21 05:03:04;;;;;;;46.58;18.17;;;8.30;99.90;;;;;;5062845;28;20132;-71
2023/11/21 05:05:30;;;;;;;43.50;17.85;;;8.30;99.90;;;;;;5062384;28;20089;-71
2023/11/21 05:07:56;;;;;;;38.90;16.75;;;8.30;99.90;;;;;;5063763;28;20052;-72
2023/11/21 05:10:22;;;;;;;37.70;16.75;;;8.30;99.90;;;;;;5063700;28;20036;-71
2023/11/21 05:12:49;;;;;;;36.22;15.77;;;8.30;99.90;;;;;;5062865;28;20079;-72
2023/11/21 05:15:17;;;;;;;35.88;15.27;;;8.30;99.90;;;;;;5063513;28;20017;-73
2023/11/21 05:17:44;;;;;;;34.83;15.23;;;8.20;99.90;;;;;;5063536;28;20036;-72
2023/11/21 05:20:14;;;;;;;34.03;15.13;;;8.20;99.90;;;;;;5062844;28;20047;-72
2023/11/21 05:22:41;;;;;;;35.08;14.27;;;8.20;99.90;;;;;;5063566;28;20398;-73
2023/11/21 05:25:09;;;;;;;34.08;13.73;;;8.20;99.90;;;;;;5060491;28;20024;-72
2023/11/21 05:27:35;;;;;;;29.73;12.98;;;8.20;99.90;;;;;;5060661;28;20040;-75
2023/11/21 05:30:05;;;;;;;32.25;13.65;;;8.10;99.90;;;;;;5063308;28;20013;-71
2023/11/21 05:32:31;;;;;;;27.10;13.30;;;8.10;99.90;;;;;;5059869;28;20025;-71
2023/11/21 05:34:56;;;;;;;25.23;11.88;;;8.10;99.90;;;;;;5063180;28;20091;-72
2023/11/21 05:37:26;;;;;;;23.40;11.30;;;8.10;99.90;;;;;;5062760;28;20040;-72
2023/11/21 05:39:52;;;;;;;26.55;11.80;;;7.90;99.90;;;;;;5061324;28;20047;-73
2023/11/21 05:42:18;;;;;;;22.55;11.40;;;8.00;99.90;;;;;;5062320;28;20076;-71
2023/11/21 05:44:44;;;;;;;25.63;11.57;;;8.00;99.90;;;;;;5062911;28;20029;-72
2023/11/21 05:47:10;;;;;;;23.88;11.93;;;8.00;99.90;;;;;;5062765;28;20025;-70
2023/11/21 05:49:36;;;;;;;24.20;11.98;;;7.90;99.90;;;;;;5063631;28;20032;-72
2023/11/21 05:52:02;;;;;;;24.15;11.82;;;7.90;99.90;;;;;;5063314;28;20428;-70
2023/11/21 05:54:28;;;;;;;22.40;11.48;;;7.90;99.90;;;;;;5063193;28;20429;-70
2023/11/21 05:56:54;;;;;;;23.13;11.38;;;7.90;99.90;;;;;;5063355;28;20037;-72
2023/11/21 05:59:20;;;;;;;24.55;10.90;;;7.90;99.90;;;;;;5061962;28;20028;-72
2023/11/21 06:01:46;;;;;;;22.92;11.30;;;7.90;99.90;;;;;;5061962;28;20041;-72
2023/11/21 06:04:12;;;;;;;24.13;11.32;;;7.90;99.90;;;;;;5062327;28;20091;-72
2023/11/21 06:06:38;;;;;;;20.25;10.15;;;7.80;99.90;;;;;;5058488;28;20104;-74
2023/11/21 06:09:05;;;;;;;25.58;11.65;;;7.80;99.90;;;;;;5053638;28;20072;-74
2023/11/21 06:11:31;;;;;;;22.88;10.68;;;7.80;99.90;;;;;;5054831;28;20023;-71
2023/11/21 06:13:57;;;;;;;20.58;10.30;;;7.90;99.90;;;;;;5060584;28;20108;-73
2023/11/21 06:16:24;;;;;;;26.02;10.80;;;7.80;99.90;;;;;;5061308;28;20032;-70
2023/11/21 06:18:49;;;;;;;19.85;10.18;;;7.70;99.90;;;;;;5061313;28;20021;-72
2023/11/21 06:21:16;;;;;;;21.55;11.20;;;7.70;99.90;;;;;;5060713;28;20021;-72
2023/11/21 06:23:42;;;;;;;24.10;11.43;;;7.70;99.90;;;;;;5060757;28;20056;-72
2023/11/21 06:26:09;;;;;;;24.45;11.15;;;7.70;99.90;;;;;;5057701;28;20030;-71
2023/11/21 06:28:36;;;;;;;23.73;11.18;;;7.70;99.90;;;;;;5062224;28;20040;-72
2023/11/21 06:31:04;;;;;;;29.55;11.68;;;7.60;99.90;;;;;;5061150;28;20032;-72
2023/11/21 06:33:31;;;;;;;22.67;11.70;;;7.60;99.90;;;;;;5057762;28;20028;-71
2023/11/21 06:35:57;;;;;;;26.55;12.13;;;7.60;99.90;;;;;;5061473;28;20017;-70
2023/11/21 06:38:22;;;;;;;24.13;11.65;;;7.60;99.90;;;;;;5059181;28;20033;-73
2023/11/21 06:40:48;;;;;;;21.70;10.80;;;7.60;99.90;;;;;;5057322;28;20056;-72
2023/11/21 06:43:14;;;;;;;22.63;11.35;;;7.50;99.90;;;;;;5057046;28;20116;-72
2023/11/21 06:45:40;;;;;;;28.33;11.90;;;7.60;99.90;;;;;;5060022;28;20049;-72
2023/11/21 06:48:05;;;;;;;25.48;12.40;;;7.60;99.90;;;;;;5062620;28;20029;-70
2023/11/21 06:50:32;;;;;;;26.10;12.05;;;7.50;99.90;;;;;;5057556;28;20104;-72
2023/11/21 06:52:57;;;;;;;24.33;12.25;;;7.50;99.90;;;;;;5060656;28;20029;-71
2023/11/21 06:55:23;;;;;;;26.60;11.98;;;7.70;99.90;;;;;;5062118;28;20390;-72
2023/11/21 06:57:49;;;;;;;27.25;12.05;;;7.50;99.90;;;;;;5061974;28;20021;-73
2023/11/21 07:00:17;;;;;;;26.80;12.95;;;7.50;99.90;;;;;;5061892;28;20135;-71
2023/11/21 07:02:43;;;;;;;25.17;12.35;;;7.50;99.90;;;;;;5060517;28;20044;-72
2023/11/21 07:05:09;;;;;;;28.92;13.80;;;7.50;99.90;;;;;;5061781;28;20025;-71
2023/11/21 07:07:36;;;;;;;28.50;12.88;;;7.40;99.90;;;;;;5062101;28;20032;-72
2023/11/21 07:10:03;;;;;;;26.80;12.57;;;7.50;99.90;;;;;;5062037;28;20060;-72
2023/11/21 07:12:31;;;;;;;30.23;13.65;;;7.50;99.90;;;;;;5055414;28;20029;-73
2023/11/21 07:14:57;;;;;;;27.30;13.10;;;7.50;99.90;;;;;;5060165;28;20060;-73
2023/11/21 07:17:23;;;;;;;31.88;13.43;;;7.50;99.90;;;;;;5061460;28;20009;-73
2023/11/21 07:19:49;;;;;;;32.72;13.65;;;7.50;99.90;;;;;;5061253;28;20080;-71
2023/11/21 07:22:21;;;;;;;31.77;13.07;;;7.40;99.90;;;;;;5061514;28;20032;-73
2023/11/21 07:24:49;;;;;;;30.05;13.75;;;7.40;99.90;;;;;;5061157;28;20045;-72
2023/11/21 07:27:15;;;;;;;28.83;13.43;;;7.40;99.90;;;;;;5061260;28;20045;-70
2023/11/21 07:29:41;;;;;;;27.52;13.48;;;7.40;99.90;;;;;;5061871;28;20037;-72
2023/11/21 07:32:09;;;;;;;30.50;14.02;;;7.40;99.90;;;;;;5060851;28;20035;-71
2023/11/21 07:34:35;;;;;;;29.13;13.48;;;7.40;99.90;;;;;;5060896;28;20029;-73
2023/11/21 07:37:01;;;;;;;30.40;13.55;;;7.50;99.90;;;;;;5059600;28;20029;-71
2023/11/21 07:39:27;;;;;;;28.92;13.82;;;7.60;99.90;;;;;;5060133;28;20025;-71
2023/11/21 07:41:52;;;;;;;28.50;13.43;;;7.50;99.90;;;;;;5060969;28;20107;-73
2023/11/21 07:44:19;;;;;;;28.50;13.23;;;7.40;99.90;;;;;;5059955;28;20481;-71
2023/11/21 07:46:45;;;;;;;28.48;13.95;;;7.40;99.90;;;;;;5059406;28;20093;-70
2023/11/21 07:49:11;;;;;;;30.27;13.55;;;7.50;99.90;;;;;;5056326;28;20060;-72
2023/11/21 07:51:36;;;;;;;31.10;12.68;;;7.40;99.90;;;;;;5059545;28;20029;-73
2023/11/21 07:54:02;;;;;;;31.88;14.20;;;7.40;99.90;;;;;;5058946;28;20036;-71
2023/11/21 07:56:28;;;;;;;26.83;13.27;;;7.40;99.90;;;;;;5057826;28;20071;-71
2023/11/21 07:58:54;;;;;;;27.10;13.25;;;7.40;99.90;;;;;;5054565;28;20017;-74
2023/11/21 08:01:19;;;;;;;28.23;13.75;;;7.50;99.90;;;;;;5058634;28;20032;-74
2023/11/21 08:03:45;;;;;;;35.92;13.77;;;7.50;99.90;;;;;;5059957;28;20053;-70
2023/11/21 08:06:11;;;;;;;29.60;13.63;;;7.50;99.90;;;;;;5059768;28;20048;-73
2023/11/21 08:08:37;;;;;;;29.65;13.70;;;7.50;99.90;;;;;;5059677;28;20032;-71
2023/11/21 08:11:03;;;;;;;30.42;13.93;;;7.60;99.90;;;;;;5060845;28;20029;-72
2023/11/21 08:13:32;;;;;;;30.92;14.02;;;7.50;99.90;;;;;;5061076;28;20025;-70
2023/11/21 08:16:02;;;;;;;30.80;14.57;;;7.50;99.90;;;;;;5059831;28;20037;-70
2023/11/21 08:18:28;;;;;;;28.25;13.45;;;7.60;99.90;;;;;;5060624;28;20021;-72
2023/11/21 08:20:55;;;;;;;37.13;14.38;;;7.70;99.90;;;;;;5059954;28;20057;-72
2023/11/21 08:23:25;;;;;;;28.92;13.90;;;7.60;99.90;;;;;;5058541;28;20522;-72
2023/11/21 08:25:50;;;;;;;29.63;14.27;;;7.60;99.90;;;;;;5060052;28;20021;-70
2023/11/21 08:28:16;;;;;;;34.05;13.77;;;7.60;99.90;;;;;;5058822;28;20060;-72
2023/11/21 08:30:42;;;;;;;32.22;13.57;;;7.60;99.90;;;;;;5060865;28;20025;-72
2023/11/21 08:33:08;;;;;;;27.75;13.38;;;7.60;99.90;;;;;;5054648;28;20057;-74
2023/11/21 08:35:34;;;;;;;29.92;13.82;;;7.60;99.90;;;;;;5055535;28;20033;-72
2023/11/21 08:38:00;;;;;;;26.80;13.13;;;7.60;99.90;;;;;;5056384;28;20025;-71
2023/11/21 08:40:26;;;;;;;28.45;12.90;;;7.60;99.90;;;;;;5056560;28;20122;-72
2023/11/21 08:42:52;;;;;;;31.65;13.85;;;7.70;99.90;;;;;;5055776;28;20049;-72
2023/11/21 08:45:19;;;;;;;25.92;12.57;;;7.70;99.90;;;;;;5058283;28;20036;-70
2023/11/21 08:47:45;;;;;;;27.35;13.05;;;7.70;99.90;;;;;;5057054;28;20028;-73
2023/11/21 08:50:12;;;;;;;27.55;13.63;;;7.70;99.90;;;;;;5059136;28;20056;-74
2023/11/21 08:52:38;;;;;;;28.92;13.57;;;7.70;99.90;;;;;;5061046;28;20044;-73
2023/11/21 08:55:08;;;;;;;27.80;13.23;;;7.80;99.90;;;;;;5058210;28;20029;-73
2023/11/21 08:57:37;;;;;;;26.83;13.05;;;7.80;99.90;;;;;;5059818;28;20021;-73
2023/11/21 09:00:07;;;;;;;31.17;14.48;;;7.80;99.90;;;;;;5059134;28;20036;-74
2023/11/21 09:02:33;;;;;;;25.88;13.32;;;7.80;99.90;;;;;;5062623;28;20099;-71
2023/11/21 09:05:03;;;;;;;24.48;13.05;;;7.80;99.90;;;;;;5062321;28;20021;-75
2023/11/21 09:07:29;;;;;;;23.13;12.45;;;7.80;99.90;;;;;;5063739;28;20036;-72
2023/11/21 09:09:55;;;;;;;23.85;12.77;;;7.80;99.90;;;;;;5062860;28;20040;-71
2023/11/21 09:12:21;;;;;;;27.73;13.20;;;7.80;99.90;;;;;;5063268;28;20029;-72
2023/11/21 09:14:47;;;;;;;27.92;12.63;;;7.90;99.90;;;;;;5062199;28;20036;-74
2023/11/21 09:17:14;;;;;;;24.33;12.40;;;7.90;99.90;;;;;;5061978;28;20021;-74
2023/11/21 09:19:40;;;;;;;25.17;12.43;;;7.80;99.90;;;;;;5062785;28;20089;-72
2023/11/21 09:22:06;;;;;;;24.10;12.60;;;7.90;99.90;;;;;;5062245;28;20025;-73
2023/11/21 09:24:32;;;;;;;21.63;11.30;;;7.90;99.90;;;;;;5062654;28;20032;-70
2023/11/21 09:26:59;;;;;;;25.02;12.23;;;7.90;99.90;;;;;;5063788;28;20049;-75
2023/11/21 09:29:31;;;;;;;24.50;12.88;;;7.90;99.90;;;;;;5059156;28;20108;-71
2023/11/21 09:31:59;;;;;;;23.60;11.73;;;7.80;99.90;;;;;;5060156;28;20029;-72
2023/11/21 09:34:25;;;;;;;19.85;11.30;;;7.90;99.90;;;;;;5062178;28;20021;-73
2023/11/21 09:36:53;;;;;;;21.92;11.80;;;7.80;99.90;;;;;;5060746;28;20029;-74
2023/11/21 09:39:18;;;;;;;24.35;12.25;;;7.90;99.90;;;;;;5062069;28;20025;-71
2023/11/21 09:41:49;;;;;;;24.02;11.60;;;7.90;99.90;;;;;;5061779;28;20052;-72
2023/11/21 09:44:18;;;;;;;23.25;11.52;;;7.90;99.90;;;;;;5063843;28;20028;-72
2023/11/21 09:46:48;;;;;;;22.98;11.75;;;7.90;99.90;;;;;;5061557;28;20025;-72
2023/11/21 09:49:14;;;;;;;25.45;11.95;;;7.90;99.90;;;;;;5055473;28;20067;-73
2023/11/21 09:51:43;;;;;;;22.63;12.10;;;8.10;99.90;;;;;;5061744;28;20016;-73
2023/11/21 09:54:11;;;;;;;22.75;12.05;;;8.10;99.90;;;;;;5057655;28;20029;-72
2023/11/21 09:56:38;;;;;;;22.73;11.48;;;8.10;99.90;;;;;;5056676;28;20179;-72
2023/11/21 09:59:08;;;;;;;26.08;12.30;;;8.10;99.90;;;;;;5058556;28;20041;-70
2023/11/21 10:01:37;;;;;;;23.48;11.52;;;8.10;99.90;;;;;;5061948;28;20021;-73
2023/11/21 10:04:05;;;;;;;22.45;11.88;;;8.10;99.90;;;;;;5062741;28;20029;-73
2023/11/21 10:06:32;;;;;;;23.90;11.98;;;8.00;99.90;;;;;;5061849;28;20029;-73
2023/11/21 10:08:59;;;;;;;21.90;11.65;;;8.00;99.90;;;;;;5060909;28;20433;-73
2023/11/21 10:11:27;;;;;;;26.73;11.73;;;8.00;99.90;;;;;;5061734;28;20025;-72
2023/11/21 10:13:58;;;;;;;23.15;11.40;;;8.10;99.90;;;;;;5060895;28;20025;-72
2023/11/21 10:16:26;;;;;;;22.35;12.30;;;8.10;99.90;;;;;;5061062;28;20087;-72
2023/11/21 10:18:54;;;;;;;21.60;11.88;;;8.20;99.90;;;;;;5059663;28;20047;-71
2023/11/21 10:21:19;;;;;;;22.27;12.32;;;8.20;99.90;;;;;;5059593;28;20029;-70
2023/11/21 10:23:46;;;;;;;25.85;13.07;;;8.20;99.90;;;;;;5060393;28;20025;-70
2023/11/21 10:26:16;;;;;;;28.80;12.40;;;8.30;99.90;;;;;;5058669;28;20033;-72
2023/11/21 10:29:06;;;;;;;22.55;11.65;;;8.30;99.90;;;;;;5060903;28;20025;-72
2023/11/21 10:31:32;;;;;;;23.17;11.77;;;8.30;99.90;;;;;;5060986;28;20760;-72
2023/11/21 10:34:13;;;;;;;23.95;11.75;;;8.30;99.90;;;;;;5061781;28;20028;-72
2023/11/21 10:36:39;;;;;;;21.50;11.38;;;8.30;99.90;;;;;;5061226;28;20474;-71
2023/11/21 10:39:05;;;;;;;21.00;11.43;;;8.30;99.90;;;;;;5060779;28;20041;-73
2023/11/21 10:41:30;;;;;;;20.08;10.95;;;8.40;99.90;;;;;;5057772;28;20140;-72
2023/11/21 10:43:56;;;;;;;23.27;11.23;;;8.40;99.90;;;;;;5055956;28;20063;-72
2023/11/21 10:46:23;;;;;;;21.02;10.55;;;8.30;99.90;;;;;;5059724;28;20441;-73
2023/11/21 10:48:58;;;;;;;22.70;10.85;;;8.40;99.90;;;;;;5058448;28;20060;-72
2023/11/21 10:51:24;;;;;;;21.50;11.00;;;8.40;99.90;;;;;;5058544;28;20029;-73
2023/11/21 10:53:51;;;;;;;21.20;10.13;;;8.40;99.90;;;;;;5062284;28;20024;-71
2023/11/21 10:56:21;;;;;;;19.83;10.43;;;8.40;99.90;;;;;;5060650;28;20029;-71
2023/11/21 10:58:48;;;;;;;23.45;10.70;;;8.50;99.90;;;;;;5060985;28;20449;-72
2023/11/21 11:01:16;;;;;;;20.02;10.25;;;8.50;99.90;;;;;;5060141;28;20029;-72
2023/11/21 11:03:44;;;;;;;20.30;10.15;;;8.40;99.90;;;;;;5059866;28;20043;-73
2023/11/21 11:06:12;;;;;;;16.75;9.40;;;8.50;99.90;;;;;;5060239;28;20047;-72
2023/11/21 11:08:39;;;;;;;21.13;9.95;;;8.40;99.90;;;;;;5059402;28;20025;-73
2023/11/21 11:11:06;;;;;;;19.80;10.15;;;8.40;99.90;;;;;;5060134;28;20389;-74
2023/11/21 11:13:32;;;;;;;18.85;10.18;;;8.40;99.90;;;;;;5056109;28;20032;-73
2023/11/21 11:16:01;;;;;;;16.92;9.27;;;8.40;99.90;;;;;;5055116;28;20063;-72
2023/11/21 11:18:29;;;;;;;17.50;8.93;;;8.40;99.90;;;;;;5054712;28;21182;-72
2023/11/21 11:21:11;;;;;;;19.13;8.20;;;8.40;99.90;;;;;;5052806;28;20083;-72
2023/11/21 11:23:51;;;;;;;15.50;8.45;;;8.40;99.90;;;;;;5060716;28;20053;-74
2023/11/21 11:26:43;;;;;;;18.75;8.68;;;8.40;99.90;;;;;;5061389;28;20037;-71
2023/11/21 11:29:26;;;;;;;12.75;7.57;;;8.40;99.90;;;;;;5059763;28;20029;-71
2023/11/21 11:32:25;;;;;;;16.27;8.00;;;8.40;99.90;;;;;;5061674;28;20625;-71
2023/11/21 11:35:01;;;;;;;19.50;7.75;;;8.40;99.90;;;;;;5059003;28;20060;-71
2023/11/21 11:37:27;;;;;;;15.80;7.47;;;8.50;99.90;;;;;;5060905;28;20032;-71
2023/11/21 11:39:54;;;;;;;15.73;7.43;;;8.30;99.90;;;;;;5056999;28;20025;-71
2023/11/21 11:42:22;;;;;;;15.00;7.80;;;8.40;99.90;;;;;;5056921;28;20135;-71
2023/11/21 11:44:56;;;;;;;12.65;7.20;;;8.40;99.90;;;;;;5048160;28;20167;-71
2023/11/21 11:47:33;;;;;;;16.73;6.88;;;8.40;99.90;;;;;;5057803;28;20029;-71
2023/11/21 11:50:27;;;;;;;13.85;6.70;;;8.40;99.90;;;;;;5058217;28;20047;-72
2023/11/21 11:52:54;;;;;;;14.98;6.47;;;8.40;99.90;;;;;;5058995;28;20452;-71
2023/11/21 11:55:24;;;;;;;11.38;6.35;;;8.20;99.90;;;;;;5050133;28;20033;-71
2023/11/21 11:57:58;;;;;;;13.60;6.40;;;8.40;99.90;;;;;;5056846;28;20044;-71
2023/11/21 12:00:26;;;;;;;9.82;6.20;;;8.40;99.90;;;;;;5057783;28;20025;-72
2023/11/21 12:02:54;;;;;;;11.48;6.00;;;8.70;99.90;;;;;;5058769;28;20049;-70
2023/11/21 12:05:22;;;;;;;12.07;6.35;;;8.70;99.90;;;;;;5053089;28;20021;-72
2023/11/21 12:07:53;;;;;;;12.40;6.53;;;8.60;99.90;;;;;;5059212;28;20032;-70
2023/11/21 12:10:22;;;;;;;11.52;6.30;;;8.50;99.90;;;;;;5060468;28;20040;-71
2023/11/21 12:12:49;;;;;;;12.00;6.68;;;8.60;99.90;;;;;;5060979;28;20039;-71
2023/11/21 12:15:15;;;;;;;17.65;7.20;;;8.40;99.90;;;;;;5061238;28;20041;-71
2023/11/21 12:17:43;;;;;;;12.95;6.82;;;8.40;99.90;;;;;;5060823;28;20119;-71
2023/11/21 12:20:17;;;;;;;14.90;6.40;;;8.40;99.90;;;;;;5060230;28;20017;-70
2023/11/21 12:22:51;;;;;;;14.13;6.70;;;8.40;99.90;;;;;;5061049;28;20051;-70
2023/11/21 12:25:18;;;;;;;;;;;8.30;99.90;;;;;;5060967;28;20037;-72
2023/11/21 12:27:54;;;;;;;11.45;6.50;;;8.40;99.90;;;;;;5059584;28;20269;-70
2023/11/21 12:30:24;;;;;;;14.23;6.80;;;8.40;99.90;;;;;;5060497;28;20053;-71
2023/11/21 12:32:51;;;;;;;13.15;7.00;;;8.40;99.90;;;;;;5059248;28;20429;-70
2023/11/21 12:35:21;;;;;;;14.02;6.80;;;8.40;99.90;;;;;;5061467;28;20036;-70
2023/11/21 12:37:48;;;;;;;13.73;7.47;;;8.40;99.90;;;;;;5064836;28;20025;-70